sensor_id;sensor_type;location;lat;lon;timestamp;temperature;humidity
66728;DHT22;53641;44.274;19.890;2023-03-01T00:01:27;5.40;99.90
66728;DHT22;53641;44.274;19.890;2023-03-01T00:03:53;5.30;99.90
66728;DHT22;53641;44.274;19.890;2023-03-01T00:06:19;5.50;99.90
66728;DHT22;53641;44.274;19.890;2023-03-01T00:08:45;5.60;99.90
66728;DHT22;53641;44.274;19.890;2023-03-01T00:11:19;5.50;99.90
66728;DHT22;53641;44.274;19.890;2023-03-01T00:13:45;5.50;99.90
66728;DHT22;53641;44.274;19.890;2023-03-01T00:16:12;5.60;99.90
66728;DHT22;53641;44.274;19.890;2023-03-01T00:18:41;5.50;99.90
66728;DHT22;53641;44.274;19.890;2023-03-01T00:21:07;5.60;99.90
66728;DHT22;53641;44.274;19.890;2023-03-01T00:23:33;5.70;99.90
66728;DHT22;53641;44.274;19.890;2023-03-01T00:25:59;5.60;99.90
66728;DHT22;53641;44.274;19.890;2023-03-01T00:28:25;5.70;99.90
66728;DHT22;53641;44.274;19.890;2023-03-01T00:30:50;5.70;99.90
66728;DHT22;53641;44.274;19.890;2023-03-01T00:33:16;5.70;99.90
66728;DHT22;53641;44.274;19.890;2023-03-01T00:35:42;5.70;99.90
66728;DHT22;53641;44.274;19.890;2023-03-01T00:38:08;5.90;99.90
66728;DHT22;53641;44.274;19.890;2023-03-01T00:40:34;5.90;99.90
66728;DHT22;53641;44.274;19.890;2023-03-01T00:43:00;5.80;99.90
66728;DHT22;53641;44.274;19.890;2023-03-01T00:45:26;5.70;99.90
66728;DHT22;53641;44.274;19.890;2023-03-01T00:47:52;5.80;99.90
66728;DHT22;53641;44.274;19.890;2023-03-01T00:50:18;5.90;99.90
66728;DHT22;53641;44.274;19.890;2023-03-01T00:52:44;5.70;99.90
66728;DHT22;53641;44.274;19.890;2023-03-01T00:55:10;6.00;99.90
66728;DHT22;53641;44.274;19.890;2023-03-01T00:57:36;5.90;99.90
66728;DHT22;53641;44.274;19.890;2023-03-01T01:00:02;5.90;99.90
66728;DHT22;53641;44.274;19.890;2023-03-01T01:02:28;5.90;99.90
66728;DHT22;53641;44.274;19.890;2023-03-01T01:04:54;5.90;99.90
66728;DHT22;53641;44.274;19.890;2023-03-01T01:07:19;5.90;99.90
66728;DHT22;53641;44.274;19.890;2023-03-01T01:09:45;5.80;99.90
66728;DHT22;53641;44.274;19.890;2023-03-01T01:12:11;5.80;99.90
66728;DHT22;53641;44.274;19.890;2023-03-01T01:14:37;5.70;99.90
66728;DHT22;53641;44.274;19.890;2023-03-01T01:17:03;5.90;99.90
66728;DHT22;53641;44.274;19.890;2023-03-01T01:19:29;5.90;99.90
66728;DHT22;53641;44.274;19.890;2023-03-01T01:21:55;6.00;99.90
66728;DHT22;53641;44.274;19.890;2023-03-01T01:24:20;6.10;99.90
66728;DHT22;53641;44.274;19.890;2023-03-01T01:26:46;5.90;99.90
66728;DHT22;53641;44.274;19.890;2023-03-01T01:29:12;5.90;99.90
66728;DHT22;53641;44.274;19.890;2023-03-01T01:31:38;5.90;99.90
66728;DHT22;53641;44.274;19.890;2023-03-01T01:34:05;6.00;99.90
66728;DHT22;53641;44.274;19.890;2023-03-01T01:36:32;5.80;99.90
66728;DHT22;53641;44.274;19.890;2023-03-01T01:38:58;6.00;99.90
66728;DHT22;53641;44.274;19.890;2023-03-01T01:41:25;6.00;99.90
66728;DHT22;53641;44.274;19.890;2023-03-01T01:44:25;6.10;99.90
66728;DHT22;53641;44.274;19.890;2023-03-01T01:46:37;6.20;99.90
66728;DHT22;53641;44.274;19.890;2023-03-01T01:49:05;6.10;99.90
66728;DHT22;53641;44.274;19.890;2023-03-01T01:51:34;6.20;99.90
66728;DHT22;53641;44.274;19.890;2023-03-01T01:54:06;6.10;99.90
66728;DHT22;53641;44.274;19.890;2023-03-01T01:56:33;6.00;99.90
66728;DHT22;53641;44.274;19.890;2023-03-01T01:58:58;6.20;99.90
66728;DHT22;53641;44.274;19.890;2023-03-01T02:01:24;6.00;99.90
66728;DHT22;53641;44.274;19.890;2023-03-01T02:03:50;6.10;99.90
66728;DHT22;53641;44.274;19.890;2023-03-01T02:06:18;6.10;99.90
66728;DHT22;53641;44.274;19.890;2023-03-01T02:08:45;6.00;99.90
66728;DHT22;53641;44.274;19.890;2023-03-01T02:11:12;6.10;99.90
66728;DHT22;53641;44.274;19.890;2023-03-01T02:13:39;6.20;99.90
66728;DHT22;53641;44.274;19.890;2023-03-01T02:16:08;6.10;99.90
66728;DHT22;53641;44.274;19.890;2023-03-01T02:18:34;6.10;99.90
66728;DHT22;53641;44.274;19.890;2023-03-01T02:21:04;6.20;99.90
66728;DHT22;53641;44.274;19.890;2023-03-01T02:23:31;6.20;99.90
66728;DHT22;53641;44.274;19.890;2023-03-01T02:26:01;6.10;99.90
66728;DHT22;53641;44.274;19.890;2023-03-01T02:28:33;6.20;99.90
66728;DHT22;53641;44.274;19.890;2023-03-01T02:30:59;6.10;99.90
66728;DHT22;53641;44.274;19.890;2023-03-01T02:33:46;6.10;99.90
66728;DHT22;53641;44.274;19.890;2023-03-01T02:36:15;6.00;99.90
66728;DHT22;53641;44.274;19.890;2023-03-01T02:38:42;6.00;99.90
66728;DHT22;53641;44.274;19.890;2023-03-01T02:41:08;6.00;99.90
66728;DHT22;53641;44.274;19.890;2023-03-01T02:43:34;6.00;99.90
66728;DHT22;53641;44.274;19.890;2023-03-01T02:46:04;5.90;99.90
66728;DHT22;53641;44.274;19.890;2023-03-01T02:48:39;6.10;99.90
66728;DHT22;53641;44.274;19.890;2023-03-01T02:51:45;6.00;99.90
66728;DHT22;53641;44.274;19.890;2023-03-01T02:53:59;6.20;99.90
66728;DHT22;53641;44.274;19.890;2023-03-01T02:56:29;6.10;99.90
66728;DHT22;53641;44.274;19.890;2023-03-01T02:58:55;6.10;99.90
66728;DHT22;53641;44.274;19.890;2023-03-01T03:01:26;6.00;99.90
66728;DHT22;53641;44.274;19.890;2023-03-01T03:04:06;6.10;99.90
66728;DHT22;53641;44.274;19.890;2023-03-01T03:06:32;6.10;99.90
66728;DHT22;53641;44.274;19.890;2023-03-01T03:08:57;6.20;99.90
66728;DHT22;53641;44.274;19.890;2023-03-01T03:11:23;6.10;99.90
66728;DHT22;53641;44.274;19.890;2023-03-01T03:13:49;6.10;99.90
66728;DHT22;53641;44.274;19.890;2023-03-01T03:16:15;5.90;99.90
66728;DHT22;53641;44.274;19.890;2023-03-01T03:18:40;5.90;99.90
66728;DHT22;53641;44.274;19.890;2023-03-01T03:21:09;6.10;99.90
66728;DHT22;53641;44.274;19.890;2023-03-01T03:23:36;6.00;99.90
66728;DHT22;53641;44.274;19.890;2023-03-01T03:26:02;5.90;99.90
66728;DHT22;53641;44.274;19.890;2023-03-01T03:28:33;5.90;99.90
66728;DHT22;53641;44.274;19.890;2023-03-01T03:30:59;6.10;99.90
66728;DHT22;53641;44.274;19.890;2023-03-01T03:33:29;6.00;99.90
66728;DHT22;53641;44.274;19.890;2023-03-01T03:35:54;5.90;99.90
66728;DHT22;53641;44.274;19.890;2023-03-01T03:38:20;6.00;99.90
66728;DHT22;53641;44.274;19.890;2023-03-01T03:40:51;5.90;99.90
66728;DHT22;53641;44.274;19.890;2023-03-01T03:43:18;6.10;99.90
66728;DHT22;53641;44.274;19.890;2023-03-01T03:45:45;6.10;99.90
66728;DHT22;53641;44.274;19.890;2023-03-01T03:48:11;6.00;99.90
66728;DHT22;53641;44.274;19.890;2023-03-01T03:50:38;6.20;99.90
66728;DHT22;53641;44.274;19.890;2023-03-01T03:53:05;6.00;99.90
66728;DHT22;53641;44.274;19.890;2023-03-01T03:55:31;6.20;99.90
66728;DHT22;53641;44.274;19.890;2023-03-01T03:57:59;6.10;99.90
66728;DHT22;53641;44.274;19.890;2023-03-01T04:00:32;6.10;99.90
66728;DHT22;53641;44.274;19.890;2023-03-01T04:02:58;6.00;99.90
66728;DHT22;53641;44.274;19.890;2023-03-01T04:05:24;5.80;99.90
66728;DHT22;53641;44.274;19.890;2023-03-01T04:07:50;5.70;99.90
66728;DHT22;53641;44.274;19.890;2023-03-01T04:10:27;5.80;99.90
66728;DHT22;53641;44.274;19.890;2023-03-01T04:12:52;5.70;99.90
66728;DHT22;53641;44.274;19.890;2023-03-01T04:15:18;5.80;99.90
66728;DHT22;53641;44.274;19.890;2023-03-01T04:17:45;5.90;99.90
66728;DHT22;53641;44.274;19.890;2023-03-01T04:20:12;5.90;99.90
66728;DHT22;53641;44.274;19.890;2023-03-01T04:22:38;5.90;99.90
66728;DHT22;53641;44.274;19.890;2023-03-01T04:25:04;6.00;99.90
66728;DHT22;53641;44.274;19.890;2023-03-01T04:27:34;5.90;99.90
66728;DHT22;53641;44.274;19.890;2023-03-01T04:30:00;5.90;99.90
66728;DHT22;53641;44.274;19.890;2023-03-01T04:32:26;5.90;99.90
66728;DHT22;53641;44.274;19.890;2023-03-01T04:34:52;5.80;99.90
66728;DHT22;53641;44.274;19.890;2023-03-01T04:37:17;5.70;99.90
66728;DHT22;53641;44.274;19.890;2023-03-01T04:39:43;5.70;99.90
66728;DHT22;53641;44.274;19.890;2023-03-01T04:42:12;5.80;99.90
66728;DHT22;53641;44.274;19.890;2023-03-01T04:44:38;5.80;99.90
66728;DHT22;53641;44.274;19.890;2023-03-01T04:47:04;5.80;99.90
66728;DHT22;53641;44.274;19.890;2023-03-01T04:49:29;5.70;99.90
66728;DHT22;53641;44.274;19.890;2023-03-01T04:51:56;5.70;99.90
66728;DHT22;53641;44.274;19.890;2023-03-01T04:54:27;5.40;99.90
66728;DHT22;53641;44.274;19.890;2023-03-01T04:56:53;5.70;99.90
66728;DHT22;53641;44.274;19.890;2023-03-01T04:59:19;5.70;99.90
66728;DHT22;53641;44.274;19.890;2023-03-01T05:01:48;5.70;99.90
66728;DHT22;53641;44.274;19.890;2023-03-01T05:04:14;5.60;99.90
66728;DHT22;53641;44.274;19.890;2023-03-01T05:06:39;5.70;99.90
66728;DHT22;53641;44.274;19.890;2023-03-01T05:09:05;5.70;99.90
66728;DHT22;53641;44.274;19.890;2023-03-01T05:11:31;5.80;99.90
66728;DHT22;53641;44.274;19.890;2023-03-01T05:14:04;5.80;99.90
66728;DHT22;53641;44.274;19.890;2023-03-01T05:16:30;5.80;99.90
66728;DHT22;53641;44.274;19.890;2023-03-01T05:18:57;5.70;99.90
66728;DHT22;53641;44.274;19.890;2023-03-01T05:21:22;5.80;99.90
66728;DHT22;53641;44.274;19.890;2023-03-01T05:23:48;5.60;99.90
66728;DHT22;53641;44.274;19.890;2023-03-01T05:26:14;5.50;99.90
66728;DHT22;53641;44.274;19.890;2023-03-01T05:28:40;5.60;99.90
66728;DHT22;53641;44.274;19.890;2023-03-01T05:31:06;5.50;99.90
66728;DHT22;53641;44.274;19.890;2023-03-01T05:33:38;5.50;99.90
66728;DHT22;53641;44.274;19.890;2023-03-01T05:36:05;5.40;99.90
66728;DHT22;53641;44.274;19.890;2023-03-01T05:38:31;5.30;99.90
66728;DHT22;53641;44.274;19.890;2023-03-01T05:40:56;5.30;99.90
66728;DHT22;53641;44.274;19.890;2023-03-01T05:43:22;5.20;99.90
66728;DHT22;53641;44.274;19.890;2023-03-01T05:45:48;5.30;99.90
66728;DHT22;53641;44.274;19.890;2023-03-01T05:48:14;5.30;99.90
66728;DHT22;53641;44.274;19.890;2023-03-01T05:50:40;5.30;99.90
66728;DHT22;53641;44.274;19.890;2023-03-01T05:53:09;5.70;99.90
66728;DHT22;53641;44.274;19.890;2023-03-01T05:55:35;5.50;99.90
66728;DHT22;53641;44.274;19.890;2023-03-01T05:58:02;5.60;99.90
66728;DHT22;53641;44.274;19.890;2023-03-01T06:00:29;5.70;99.90
66728;DHT22;53641;44.274;19.890;2023-03-01T06:02:55;5.80;99.90
66728;DHT22;53641;44.274;19.890;2023-03-01T06:05:21;5.70;99.90
66728;DHT22;53641;44.274;19.890;2023-03-01T06:07:47;5.80;99.90
66728;DHT22;53641;44.274;19.890;2023-03-01T06:10:13;5.70;99.90
66728;DHT22;53641;44.274;19.890;2023-03-01T06:12:39;5.80;99.90
66728;DHT22;53641;44.274;19.890;2023-03-01T06:15:06;5.70;99.90
66728;DHT22;53641;44.274;19.890;2023-03-01T06:17:32;5.70;99.90
66728;DHT22;53641;44.274;19.890;2023-03-01T06:20:03;5.80;99.90
66728;DHT22;53641;44.274;19.890;2023-03-01T06:22:29;5.70;99.90
66728;DHT22;53641;44.274;19.890;2023-03-01T06:24:54;5.80;99.90
66728;DHT22;53641;44.274;19.890;2023-03-01T06:27:20;5.80;99.90
66728;DHT22;53641;44.274;19.890;2023-03-01T06:29:46;5.60;99.90
66728;DHT22;53641;44.274;19.890;2023-03-01T06:32:11;5.70;99.90
66728;DHT22;53641;44.274;19.890;2023-03-01T06:34:37;5.50;99.90
66728;DHT22;53641;44.274;19.890;2023-03-01T06:37:03;5.40;99.90
66728;DHT22;53641;44.274;19.890;2023-03-01T06:39:30;5.60;99.90
66728;DHT22;53641;44.274;19.890;2023-03-01T06:41:56;5.60;99.90
66728;DHT22;53641;44.274;19.890;2023-03-01T06:44:22;5.60;99.90
66728;DHT22;53641;44.274;19.890;2023-03-01T06:46:48;5.60;99.90
66728;DHT22;53641;44.274;19.890;2023-03-01T06:49:15;5.50;99.90
66728;DHT22;53641;44.274;19.890;2023-03-01T06:51:43;5.50;99.90
66728;DHT22;53641;44.274;19.890;2023-03-01T06:54:09;5.50;99.90
66728;DHT22;53641;44.274;19.890;2023-03-01T06:56:35;5.30;99.90
66728;DHT22;53641;44.274;19.890;2023-03-01T06:59:04;5.40;99.90
66728;DHT22;53641;44.274;19.890;2023-03-01T07:01:32;5.60;99.90
66728;DHT22;53641;44.274;19.890;2023-03-01T07:03:58;5.30;99.90
66728;DHT22;53641;44.274;19.890;2023-03-01T07:06:24;5.50;99.90
66728;DHT22;53641;44.274;19.890;2023-03-01T07:08:50;5.50;99.90
66728;DHT22;53641;44.274;19.890;2023-03-01T07:11:18;5.50;99.90
66728;DHT22;53641;44.274;19.890;2023-03-01T07:13:44;5.70;99.90
66728;DHT22;53641;44.274;19.890;2023-03-01T07:16:15;5.80;99.90
66728;DHT22;53641;44.274;19.890;2023-03-01T07:18:41;5.90;99.90
66728;DHT22;53641;44.274;19.890;2023-03-01T07:21:07;5.80;99.90
66728;DHT22;53641;44.274;19.890;2023-03-01T07:23:33;6.10;99.90
66728;DHT22;53641;44.274;19.890;2023-03-01T07:26:00;6.00;99.90
66728;DHT22;53641;44.274;19.890;2023-03-01T07:28:26;5.90;99.90
66728;DHT22;53641;44.274;19.890;2023-03-01T07:30:53;5.90;99.90
66728;DHT22;53641;44.274;19.890;2023-03-01T07:33:19;6.10;99.90
66728;DHT22;53641;44.274;19.890;2023-03-01T07:35:44;6.20;99.90
66728;DHT22;53641;44.274;19.890;2023-03-01T07:38:10;6.20;99.90
66728;DHT22;53641;44.274;19.890;2023-03-01T07:40:36;6.10;99.90
66728;DHT22;53641;44.274;19.890;2023-03-01T07:43:01;6.30;99.90
66728;DHT22;53641;44.274;19.890;2023-03-01T07:45:27;6.00;99.90
66728;DHT22;53641;44.274;19.890;2023-03-01T07:47:53;6.20;99.90
66728;DHT22;53641;44.274;19.890;2023-03-01T07:50:20;6.10;99.90
66728;DHT22;53641;44.274;19.890;2023-03-01T07:52:46;6.30;99.90
66728;DHT22;53641;44.274;19.890;2023-03-01T07:55:12;6.30;99.90
66728;DHT22;53641;44.274;19.890;2023-03-01T07:57:38;6.40;99.90
66728;DHT22;53641;44.274;19.890;2023-03-01T08:00:04;6.30;99.90
66728;DHT22;53641;44.274;19.890;2023-03-01T08:02:30;6.40;99.90
66728;DHT22;53641;44.274;19.890;2023-03-01T08:04:56;6.50;99.90
66728;DHT22;53641;44.274;19.890;2023-03-01T08:07:21;6.40;99.90
66728;DHT22;53641;44.274;19.890;2023-03-01T08:09:47;6.30;99.90
66728;DHT22;53641;44.274;19.890;2023-03-01T08:12:13;6.60;99.90
66728;DHT22;53641;44.274;19.890;2023-03-01T08:14:38;6.30;99.90
66728;DHT22;53641;44.274;19.890;2023-03-01T08:17:04;6.30;99.90
66728;DHT22;53641;44.274;19.890;2023-03-01T08:19:30;6.60;99.90
66728;DHT22;53641;44.274;19.890;2023-03-01T08:21:56;6.50;99.90
66728;DHT22;53641;44.274;19.890;2023-03-01T08:24:23;6.50;99.90
66728;DHT22;53641;44.274;19.890;2023-03-01T08:26:49;6.50;99.90
66728;DHT22;53641;44.274;19.890;2023-03-01T08:29:14;6.40;99.90
66728;DHT22;53641;44.274;19.890;2023-03-01T08:31:40;6.40;99.90
66728;DHT22;53641;44.274;19.890;2023-03-01T08:34:08;6.50;99.90
66728;DHT22;53641;44.274;19.890;2023-03-01T08:36:35;6.60;99.90
66728;DHT22;53641;44.274;19.890;2023-03-01T08:39:02;6.60;99.90
66728;DHT22;53641;44.274;19.890;2023-03-01T08:41:28;6.80;99.90
66728;DHT22;53641;44.274;19.890;2023-03-01T08:43:54;6.60;99.90
66728;DHT22;53641;44.274;19.890;2023-03-01T08:46:34;6.20;99.90
66728;DHT22;53641;44.274;19.890;2023-03-01T08:49:08;6.20;99.90
66728;DHT22;53641;44.274;19.890;2023-03-01T08:51:34;6.30;99.90
66728;DHT22;53641;44.274;19.890;2023-03-01T08:54:03;5.90;99.90
66728;DHT22;53641;44.274;19.890;2023-03-01T08:56:30;6.10;99.90
66728;DHT22;53641;44.274;19.890;2023-03-01T08:58:56;6.30;99.90
66728;DHT22;53641;44.274;19.890;2023-03-01T09:01:22;6.30;99.90
66728;DHT22;53641;44.274;19.890;2023-03-01T09:03:47;6.00;99.90
66728;DHT22;53641;44.274;19.890;2023-03-01T09:06:13;6.10;99.90
66728;DHT22;53641;44.274;19.890;2023-03-01T09:08:40;6.10;99.90
66728;DHT22;53641;44.274;19.890;2023-03-01T09:11:07;6.20;99.90
66728;DHT22;53641;44.274;19.890;2023-03-01T09:13:34;6.40;99.90
66728;DHT22;53641;44.274;19.890;2023-03-01T09:16:01;6.60;99.90
66728;DHT22;53641;44.274;19.890;2023-03-01T09:18:27;6.80;99.90
66728;DHT22;53641;44.274;19.890;2023-03-01T09:20:53;6.70;99.90
66728;DHT22;53641;44.274;19.890;2023-03-01T09:23:20;7.10;99.90
66728;DHT22;53641;44.274;19.890;2023-03-01T09:25:49;7.00;99.90
66728;DHT22;53641;44.274;19.890;2023-03-01T09:28:14;7.20;99.90
66728;DHT22;53641;44.274;19.890;2023-03-01T09:30:40;7.40;99.90
66728;DHT22;53641;44.274;19.890;2023-03-01T09:33:06;7.30;99.90
66728;DHT22;53641;44.274;19.890;2023-03-01T09:35:31;7.00;99.90
66728;DHT22;53641;44.274;19.890;2023-03-01T09:37:57;7.30;99.90
66728;DHT22;53641;44.274;19.890;2023-03-01T09:40:24;7.00;99.90
66728;DHT22;53641;44.274;19.890;2023-03-01T09:42:54;7.10;99.90
66728;DHT22;53641;44.274;19.890;2023-03-01T09:45:25;7.40;99.90
66728;DHT22;53641;44.274;19.890;2023-03-01T09:47:51;7.50;99.90
66728;DHT22;53641;44.274;19.890;2023-03-01T09:50:19;7.60;99.90
66728;DHT22;53641;44.274;19.890;2023-03-01T09:53:00;7.50;99.90
66728;DHT22;53641;44.274;19.890;2023-03-01T09:55:50;7.50;99.90
66728;DHT22;53641;44.274;19.890;2023-03-01T09:58:27;7.40;99.90
66728;DHT22;53641;44.274;19.890;2023-03-01T10:00:54;7.50;99.90
66728;DHT22;53641;44.274;19.890;2023-03-01T10:03:26;7.80;99.90
66728;DHT22;53641;44.274;19.890;2023-03-01T10:06:00;7.90;99.90
66728;DHT22;53641;44.274;19.890;2023-03-01T10:08:31;7.90;99.90
66728;DHT22;53641;44.274;19.890;2023-03-01T10:11:01;8.00;99.90
66728;DHT22;53641;44.274;19.890;2023-03-01T10:13:37;8.00;99.90
66728;DHT22;53641;44.274;19.890;2023-03-01T10:16:14;7.80;99.90
66728;DHT22;53641;44.274;19.890;2023-03-01T10:18:47;7.90;99.90
66728;DHT22;53641;44.274;19.890;2023-03-01T10:21:18;7.90;99.90
66728;DHT22;53641;44.274;19.890;2023-03-01T10:23:44;8.00;99.90
66728;DHT22;53641;44.274;19.890;2023-03-01T10:26:27;7.80;99.90
66728;DHT22;53641;44.274;19.890;2023-03-01T10:29:08;8.10;99.90
66728;DHT22;53641;44.274;19.890;2023-03-01T10:31:43;8.10;99.90
66728;DHT22;53641;44.274;19.890;2023-03-01T10:34:14;8.20;99.90
66728;DHT22;53641;44.274;19.890;2023-03-01T10:36:41;8.20;99.90
66728;DHT22;53641;44.274;19.890;2023-03-01T10:39:15;8.20;99.90
66728;DHT22;53641;44.274;19.890;2023-03-01T10:41:52;8.20;99.90
66728;DHT22;53641;44.274;19.890;2023-03-01T10:44:38;8.40;99.90
66728;DHT22;53641;44.274;19.890;2023-03-01T10:47:04;8.50;99.90
66728;DHT22;53641;44.274;19.890;2023-03-01T10:49:30;8.50;99.90
66728;DHT22;53641;44.274;19.890;2023-03-01T10:52:10;8.50;99.90
66728;DHT22;53641;44.274;19.890;2023-03-01T10:54:37;8.60;99.90
66728;DHT22;53641;44.274;19.890;2023-03-01T10:57:10;8.10;99.90
66728;DHT22;53641;44.274;19.890;2023-03-01T10:59:51;8.00;99.90
66728;DHT22;53641;44.274;19.890;2023-03-01T11:02:29;8.30;99.90
66728;DHT22;53641;44.274;19.890;2023-03-01T11:04:58;8.20;99.90
66728;DHT22;53641;44.274;19.890;2023-03-01T11:07:24;8.30;99.90
66728;DHT22;53641;44.274;19.890;2023-03-01T11:09:49;7.60;99.90
66728;DHT22;53641;44.274;19.890;2023-03-01T11:12:16;8.40;99.90
66728;DHT22;53641;44.274;19.890;2023-03-01T11:14:49;8.50;99.90
66728;DHT22;53641;44.274;19.890;2023-03-01T11:17:27;8.70;99.90
66728;DHT22;53641;44.274;19.890;2023-03-01T11:20:23;8.70;99.90
66728;DHT22;53641;44.274;19.890;2023-03-01T11:22:51;8.60;99.90
66728;DHT22;53641;44.274;19.890;2023-03-01T11:25:19;8.60;99.90
66728;DHT22;53641;44.274;19.890;2023-03-01T11:27:49;8.80;99.90
66728;DHT22;53641;44.274;19.890;2023-03-01T11:30:19;8.90;99.90
66728;DHT22;53641;44.274;19.890;2023-03-01T11:32:52;9.00;99.90
66728;DHT22;53641;44.274;19.890;2023-03-01T11:35:22;8.90;99.90
66728;DHT22;53641;44.274;19.890;2023-03-01T11:38:09;9.40;99.90
66728;DHT22;53641;44.274;19.890;2023-03-01T11:40:37;9.00;99.90
66728;DHT22;53641;44.274;19.890;2023-03-01T11:43:44;9.00;99.90
66728;DHT22;53641;44.274;19.890;2023-03-01T11:46:05;9.20;99.90
66728;DHT22;53641;44.274;19.890;2023-03-01T11:48:38;9.20;99.90
66728;DHT22;53641;44.274;19.890;2023-03-01T11:51:38;9.00;99.90
66728;DHT22;53641;44.274;19.890;2023-03-01T11:54:31;9.00;99.90
66728;DHT22;53641;44.274;19.890;2023-03-01T11:56:55;9.60;99.90
66728;DHT22;53641;44.274;19.890;2023-03-01T11:59:32;8.90;99.90
66728;DHT22;53641;44.274;19.890;2023-03-01T12:02:16;9.10;99.90
66728;DHT22;53641;44.274;19.890;2023-03-01T12:05:02;9.20;99.90
66728;DHT22;53641;44.274;19.890;2023-03-01T12:07:33;9.00;99.90
66728;DHT22;53641;44.274;19.890;2023-03-01T12:10:30;8.90;99.90
66728;DHT22;53641;44.274;19.890;2023-03-01T12:12:52;9.00;99.90
66728;DHT22;53641;44.274;19.890;2023-03-01T12:15:37;9.10;99.90
66728;DHT22;53641;44.274;19.890;2023-03-01T12:18:12;9.10;99.90
66728;DHT22;53641;44.274;19.890;2023-03-01T12:22:00;9.20;99.90
66728;DHT22;53641;44.274;19.890;2023-03-01T12:24:10;9.20;99.90
66728;DHT22;53641;44.274;19.890;2023-03-01T12:26:29;9.10;99.90
66728;DHT22;53641;44.274;19.890;2023-03-01T12:30:04;8.80;99.90
66728;DHT22;53641;44.274;19.890;2023-03-01T12:31:44;8.80;99.90
66728;DHT22;53641;44.274;19.890;2023-03-01T12:34:53;8.70;99.90
66728;DHT22;53641;44.274;19.890;2023-03-01T12:37:16;8.70;99.90
66728;DHT22;53641;44.274;19.890;2023-03-01T12:39:59;8.70;99.90
66728;DHT22;53641;44.274;19.890;2023-03-01T12:42:55;8.40;99.90
66728;DHT22;53641;44.274;19.890;2023-03-01T12:48:23;8.60;99.90
66728;DHT22;53641;44.274;19.890;2023-03-01T12:50:52;8.60;99.90
66728;DHT22;53641;44.274;19.890;2023-03-01T12:53:31;8.60;99.90
66728;DHT22;53641;44.274;19.890;2023-03-01T12:56:02;8.30;99.90
66728;DHT22;53641;44.274;19.890;2023-03-01T12:58:32;8.70;99.90
66728;DHT22;53641;44.274;19.890;2023-03-01T13:01:26;8.90;99.90
66728;DHT22;53641;44.274;19.890;2023-03-01T13:03:57;8.80;99.90
66728;DHT22;53641;44.274;19.890;2023-03-01T13:06:29;8.90;99.90
66728;DHT22;53641;44.274;19.890;2023-03-01T13:09:04;8.90;99.90
66728;DHT22;53641;44.274;19.890;2023-03-01T13:11:33;9.00;99.90
66728;DHT22;53641;44.274;19.890;2023-03-01T13:14:36;9.10;99.90
66728;DHT22;53641;44.274;19.890;2023-03-01T13:16:45;9.30;99.90
66728;DHT22;53641;44.274;19.890;2023-03-01T13:19:24;9.30;99.90
66728;DHT22;53641;44.274;19.890;2023-03-01T13:22:01;9.30;99.90
66728;DHT22;53641;44.274;19.890;2023-03-01T13:24:46;9.00;99.90
66728;DHT22;53641;44.274;19.890;2023-03-01T13:27:21;8.90;99.90
66728;DHT22;53641;44.274;19.890;2023-03-01T13:29:51;8.80;99.90
66728;DHT22;53641;44.274;19.890;2023-03-01T13:32:22;8.70;99.90
66728;DHT22;53641;44.274;19.890;2023-03-01T13:34:49;8.80;99.90
66728;DHT22;53641;44.274;19.890;2023-03-01T13:37:19;8.60;99.90
66728;DHT22;53641;44.274;19.890;2023-03-01T13:39:45;8.50;99.90
66728;DHT22;53641;44.274;19.890;2023-03-01T13:42:29;8.40;99.90
66728;DHT22;53641;44.274;19.890;2023-03-01T13:44:56;8.50;99.90
66728;DHT22;53641;44.274;19.890;2023-03-01T13:47:22;8.40;99.90
66728;DHT22;53641;44.274;19.890;2023-03-01T13:49:58;8.60;99.90
66728;DHT22;53641;44.274;19.890;2023-03-01T13:52:35;8.50;99.90
66728;DHT22;53641;44.274;19.890;2023-03-01T13:55:21;8.60;99.90
66728;DHT22;53641;44.274;19.890;2023-03-01T13:57:49;8.40;99.90
66728;DHT22;53641;44.274;19.890;2023-03-01T14:00:26;8.30;99.90
66728;DHT22;53641;44.274;19.890;2023-03-01T14:03:27;8.60;99.90
66728;DHT22;53641;44.274;19.890;2023-03-01T14:05:39;8.60;99.90
66728;DHT22;53641;44.274;19.890;2023-03-01T14:08:05;8.50;99.90
66728;DHT22;53641;44.274;19.890;2023-03-01T14:10:44;8.90;99.90
66728;DHT22;53641;44.274;19.890;2023-03-01T14:13:28;8.00;99.90
66728;DHT22;53641;44.274;19.890;2023-03-01T14:16:12;8.40;99.90
66728;DHT22;53641;44.274;19.890;2023-03-01T14:18:45;8.30;99.90
66728;DHT22;53641;44.274;19.890;2023-03-01T14:21:13;8.40;99.90
66728;DHT22;53641;44.274;19.890;2023-03-01T14:23:39;8.30;99.90
66728;DHT22;53641;44.274;19.890;2023-03-01T14:26:07;8.40;99.90
66728;DHT22;53641;44.274;19.890;2023-03-01T14:28:34;8.10;99.90
66728;DHT22;53641;44.274;19.890;2023-03-01T14:31:03;8.40;99.90
66728;DHT22;53641;44.274;19.890;2023-03-01T14:33:30;8.20;99.90
66728;DHT22;53641;44.274;19.890;2023-03-01T14:36:02;8.20;99.90
66728;DHT22;53641;44.274;19.890;2023-03-01T14:38:33;8.20;99.90
66728;DHT22;53641;44.274;19.890;2023-03-01T14:41:04;8.30;99.90
66728;DHT22;53641;44.274;19.890;2023-03-01T14:43:31;8.20;99.90
66728;DHT22;53641;44.274;19.890;2023-03-01T14:46:05;8.30;99.90
66728;DHT22;53641;44.274;19.890;2023-03-01T14:48:31;8.10;99.90
66728;DHT22;53641;44.274;19.890;2023-03-01T14:50:57;8.30;99.90
66728;DHT22;53641;44.274;19.890;2023-03-01T14:53:24;8.40;99.90
66728;DHT22;53641;44.274;19.890;2023-03-01T14:55:52;8.30;99.90
66728;DHT22;53641;44.274;19.890;2023-03-01T14:58:19;8.10;99.90
66728;DHT22;53641;44.274;19.890;2023-03-01T15:00:53;8.30;99.90
66728;DHT22;53641;44.274;19.890;2023-03-01T15:03:33;8.10;99.90
66728;DHT22;53641;44.274;19.890;2023-03-01T15:06:00;8.20;99.90
66728;DHT22;53641;44.274;19.890;2023-03-01T15:08:26;7.80;99.90
66728;DHT22;53641;44.274;19.890;2023-03-01T15:11:01;8.50;99.90
66728;DHT22;53641;44.274;19.890;2023-03-01T15:13:31;8.00;99.90
66728;DHT22;53641;44.274;19.890;2023-03-01T15:16:02;8.10;99.90
66728;DHT22;53641;44.274;19.890;2023-03-01T15:18:37;8.00;99.90
66728;DHT22;53641;44.274;19.890;2023-03-01T15:21:13;8.10;99.90
66728;DHT22;53641;44.274;19.890;2023-03-01T15:23:40;8.00;99.90
66728;DHT22;53641;44.274;19.890;2023-03-01T15:26:06;8.10;99.90
66728;DHT22;53641;44.274;19.890;2023-03-01T15:28:36;8.10;99.90
66728;DHT22;53641;44.274;19.890;2023-03-01T15:31:16;7.90;99.90
66728;DHT22;53641;44.274;19.890;2023-03-01T15:33:43;8.00;99.90
66728;DHT22;53641;44.274;19.890;2023-03-01T15:36:46;8.10;99.90
66728;DHT22;53641;44.274;19.890;2023-03-01T15:38:59;8.00;99.90
66728;DHT22;53641;44.274;19.890;2023-03-01T15:41:30;8.00;99.90
66728;DHT22;53641;44.274;19.890;2023-03-01T15:43:56;7.90;99.90
66728;DHT22;53641;44.274;19.890;2023-03-01T15:46:27;8.00;99.90
66728;DHT22;53641;44.274;19.890;2023-03-01T15:48:58;8.00;99.90